Rey, Iran
Current Conditions -  °F | °C
As of 9:00 PM on Monday 20 Oct 2014 (Local Time) from OIII Reporting Station
Scattered Clouds Scattered Clouds  
Wind Chill: 61°   Ceiling: Unl
Heat Index: 61°   Visibility: 6mi
Dew Point: 46°   Wind: 7mph
Humidity: 59%   Direction: 330°NNW
Pressure: 30.06"   Gusts: NA
Location:  35.6°N, 51.44°E
Report Text: OIII 201800Z 33006KT 9999 FEW035CB FEW040 SCT100 16/08 Q1018 A3006 TEMPO 27008MPS 4000 SHRA
Loading
Personal Weather Stations






























Interactive Weather Map
Tropical Storm Tracking
New forecast layout! Learn more

10-Day Weather Forecast

Advertisements
Track Severe Weather on mobile